Estación de Peumo Norte
Ultimos registro cada 15 minutos 43
| N° | Estación | Fecha / Hora | Temperatura | Humedad | Lluvia | Velocidad | Dirección | Radiación | Presion |
| 43 | Peumo Norte | 04-05-2026 10:30 | 13,2 | 79,4 | 0 | 0 | 225 | 111,9 | 1002,9 |
| 42 | Peumo Norte | 04-05-2026 10:15 | 12,6 | 85,6 | 0 | 0 | 225 | 129,4 | 1002,9 |
| 41 | Peumo Norte | 04-05-2026 10:00 | 11,8 | 89,3 | 0 | 0 | 218 | 115,6 | 1002,8 |
| 40 | Peumo Norte | 04-05-2026 09:45 | 11,2 | 91 | 0 | 0 | 190 | 111,9 | 1002,6 |
| 39 | Peumo Norte | 04-05-2026 09:30 | 10,9 | 92,4 | 0 | 0 | 153 | 106,9 | 1002,4 |
| 38 | Peumo Norte | 04-05-2026 09:15 | 10,1 | 93,1 | 0 | 0 | 153 | 93,1 | 1002,4 |
| 37 | Peumo Norte | 04-05-2026 09:00 | 9,4 | 93,6 | 0 | 0 | 153 | 86,9 | 1002,2 |
| 36 | Peumo Norte | 04-05-2026 08:45 | 8,7 | 93,5 | 0 | 0 | 153 | 58,1 | 1002,2 |
| 35 | Peumo Norte | 04-05-2026 08:30 | 8,2 | 93,5 | 0 | 0 | 153 | 29,4 | 1002,3 |
| 34 | Peumo Norte | 04-05-2026 08:15 | 8 | 93,2 | 0 | 0 | 153 | 21,9 | 1002,1 |
| 33 | Peumo Norte | 04-05-2026 08:00 | 7,8 | 93 | 0 | 0 | 153 | 11,9 | 1002,1 |
| 32 | Peumo Norte | 04-05-2026 07:45 | 7,3 | 92,9 | 0 | 0 | 153 | 3,1 | 1002 |
| 31 | Peumo Norte | 04-05-2026 07:30 | 7 | 92,6 | 0 | 0 | 153 | 0,6 | 1002,2 |
| 30 | Peumo Norte | 04-05-2026 07:15 | 6,4 | 92,4 | 0 | 0 | 153 | 0,6 | 1002,3 |
| 29 | Peumo Norte | 04-05-2026 07:00 | 6,1 | 92,2 | 0 | 0 | 153 | 0,6 | 1002,1 |
| 28 | Peumo Norte | 04-05-2026 06:45 | 6 | 91,5 | 0 | 0 | 153 | 0,6 | 1002 |
| 27 | Peumo Norte | 04-05-2026 06:30 | 5,9 | 90,9 | 0 | 0 | 153 | 0,6 | 1001,8 |
| 26 | Peumo Norte | 04-05-2026 06:15 | 6,6 | 90,7 | 0 | 0 | 153 | 0,6 | 1001,6 |
| 25 | Peumo Norte | 04-05-2026 06:00 | 6,2 | 90,2 | 0 | 0 | 153 | 0,6 | 1001,6 |
| 24 | Peumo Norte | 04-05-2026 05:45 | 6,7 | 89,7 | 0 | 0 | 153 | 0,6 | 1001,5 |
| 23 | Peumo Norte | 04-05-2026 05:30 | 6,5 | 88,9 | 0 | 0 | 153 | 0,6 | 1001,6 |
| 22 | Peumo Norte | 04-05-2026 05:15 | 7,8 | 88,3 | 0 | 0 | 153 | 0,6 | 1001,4 |
| 21 | Peumo Norte | 04-05-2026 05:00 | 8,3 | 88,1 | 0 | 0 | 153 | 0,6 | 1001,3 |
| 20 | Peumo Norte | 04-05-2026 04:45 | 8,3 | 86,7 | 0 | 0 | 153 | 0,6 | 1001,2 |
| 19 | Peumo Norte | 04-05-2026 04:30 | 9,2 | 84,7 | 0 | 0 | 153 | 0,6 | 1001,2 |
| 18 | Peumo Norte | 04-05-2026 04:15 | 9,4 | 84,6 | 0 | 0 | 153 | 0,6 | 1001,4 |
| 17 | Peumo Norte | 04-05-2026 04:00 | 9,5 | 83,7 | 0 | 0 | 153 | 0,6 | 1001,4 |
| 16 | Peumo Norte | 04-05-2026 03:45 | 9,7 | 82,6 | 0 | 0 | 153 | 0,6 | 1001,5 |
| 15 | Peumo Norte | 04-05-2026 03:30 | 10,3 | 80,2 | 0 | 0 | 153 | 0,6 | 1001,7 |
| 14 | Peumo Norte | 04-05-2026 03:15 | 10,6 | 79,6 | 0 | 0 | 153 | 0,6 | 1001,9 |
| 13 | Peumo Norte | 04-05-2026 03:00 | 10,7 | 79,3 | 0 | 0 | 59 | 0,6 | 1001,9 |
| 12 | Peumo Norte | 04-05-2026 02:45 | 10,8 | 79,6 | 0 | 0 | 29 | 0,6 | 1002,2 |
| 11 | Peumo Norte | 04-05-2026 02:30 | 10,3 | 82,1 | 0 | 0 | 29 | 0,6 | 1002,4 |
| 10 | Peumo Norte | 04-05-2026 02:15 | 9,9 | 82,6 | 0 | 0 | 29 | 0,6 | 1002,5 |
| 9 | Peumo Norte | 04-05-2026 02:00 | 10 | 81,6 | 0 | 0 | 29 | 0,6 | 1002,6 |
| 8 | Peumo Norte | 04-05-2026 01:45 | 10,2 | 80,5 | 0 | 0 | 63 | 0,6 | 1002,3 |
| 7 | Peumo Norte | 04-05-2026 01:30 | 10,8 | 79,7 | 0 | 0 | 90 | 0,6 | 1001,9 |
| 6 | Peumo Norte | 04-05-2026 01:15 | 10,6 | 80,9 | 0 | 0 | 90 | 0,6 | 1002,4 |
| 5 | Peumo Norte | 04-05-2026 01:00 | 10,1 | 80,5 | 0 | 0 | 90 | 0,6 | 1002,4 |
| 4 | Peumo Norte | 04-05-2026 00:45 | 10,5 | 80,8 | 0 | 0 | 90 | 0,6 | 1002,5 |
| 3 | Peumo Norte | 04-05-2026 00:30 | 10,2 | 79,9 | 0 | 0 | 90 | 0,6 | 1002,8 |
| 2 | Peumo Norte | 04-05-2026 00:15 | 10,7 | 80,2 | 0 | 0 | 90 | 0,6 | 1003 |
| 1 | Peumo Norte | 04-05-2026 00:00 | 10,5 | 80,5 | 0 | 0 | 90 | 0,6 | 1003,2 |